createdAt,value
2023-04-15T00:00:58.839Z,4.32
2023-04-15T00:03:25.711Z,4.75
2023-04-15T00:05:52.561Z,4.25
2023-04-15T00:08:20.294Z,4.95
2023-04-15T00:10:46.878Z,4.45
2023-04-15T00:13:13.500Z,4.35
2023-04-15T00:15:40.084Z,4.45
2023-04-15T00:18:08.028Z,5.50
2023-04-15T00:20:35.560Z,4.50
2023-04-15T00:23:03.863Z,5.00
2023-04-15T00:25:30.693Z,4.68
2023-04-15T00:27:57.243Z,4.38
2023-04-15T00:30:23.844Z,5.40
2023-04-15T00:32:50.496Z,4.53
2023-04-15T00:35:17.345Z,4.78
2023-04-15T00:37:46.062Z,4.57
2023-04-15T00:40:13.944Z,4.78
2023-04-15T00:42:41.066Z,4.70
2023-04-15T00:45:08.805Z,4.60
2023-04-15T00:47:37.100Z,4.57
2023-04-15T00:50:03.950Z,5.00
2023-04-15T00:52:31.043Z,5.70
2023-04-15T00:54:57.736Z,4.57
2023-04-15T00:57:24.404Z,4.90
2023-04-15T00:59:52.547Z,4.63
2023-04-15T01:02:19.630Z,4.95
2023-04-15T01:04:46.977Z,4.85
2023-04-15T01:07:13.487Z,5.25
2023-04-15T01:09:40.551Z,5.15
2023-04-15T01:12:08.873Z,5.43
2023-04-15T01:14:35.724Z,5.53
2023-04-15T01:17:02.796Z,5.72
2023-04-15T01:19:29.525Z,5.38
2023-04-15T01:21:57.490Z,5.30
2023-04-15T01:24:26.007Z,5.22
2023-04-15T01:26:52.580Z,6.22
2023-04-15T01:29:19.302Z,5.53
2023-04-15T01:31:53.520Z,5.30
2023-04-15T01:34:20.823Z,5.78
2023-04-15T01:36:47.609Z,5.88
2023-04-15T01:39:14.769Z,5.72
2023-04-15T01:41:42.316Z,5.90
2023-04-15T01:44:09.170Z,5.60
2023-04-15T01:46:36.211Z,6.05
2023-04-15T01:49:02.962Z,6.38
2023-04-15T01:51:29.574Z,5.93
2023-04-15T01:53:58.969Z,6.10
2023-04-15T01:56:25.533Z,6.25
2023-04-15T01:58:52.327Z,6.10
2023-04-15T02:01:22.129Z,5.90
2023-04-15T02:03:49.139Z,6.35
2023-04-15T02:06:15.998Z,6.03
2023-04-15T02:08:42.504Z,6.63
2023-04-15T02:11:09.202Z,6.72
2023-04-15T02:13:36.137Z,6.00
2023-04-15T02:16:03.497Z,6.15
2023-04-15T02:18:30.619Z,6.05
2023-04-15T02:20:58.543Z,6.22
2023-04-15T02:23:25.454Z,6.30
2023-04-15T02:25:53.618Z,6.15
2023-04-15T02:28:21.479Z,5.72
2023-04-15T02:30:52.494Z,5.95
2023-04-15T02:33:19.737Z,6.43
2023-04-15T02:35:46.505Z,6.43
2023-04-15T02:38:14.220Z,6.55
2023-04-15T02:40:40.831Z,7.00
2023-04-15T02:43:07.402Z,6.22
2023-04-15T02:45:34.050Z,6.65
2023-04-15T02:48:05.838Z,6.70
2023-04-15T02:50:32.385Z,7.22
2023-04-15T02:53:00.996Z,6.90
2023-04-15T02:55:27.921Z,6.93
2023-04-15T02:57:54.541Z,6.43
2023-04-15T03:00:21.528Z,7.07
2023-04-15T03:02:49.968Z,6.78
2023-04-15T03:05:16.648Z,5.97
2023-04-15T03:07:43.552Z,6.50
2023-04-15T03:10:10.926Z,6.68
2023-04-15T03:12:37.503Z,6.53
2023-04-15T03:15:04.356Z,6.82
2023-04-15T03:17:31.139Z,6.70
2023-04-15T03:19:57.832Z,6.93
2023-04-15T03:22:25.061Z,7.43
2023-04-15T03:24:51.609Z,6.80
2023-04-15T03:27:18.165Z,6.68
2023-04-15T03:29:44.805Z,7.07
2023-04-15T03:32:12.053Z,6.90
2023-04-15T03:34:38.577Z,7.57
2023-04-15T03:37:05.559Z,7.25
2023-04-15T03:39:32.141Z,7.10
2023-04-15T03:41:59.542Z,6.78
2023-04-15T03:44:28.958Z,7.00
2023-04-15T03:46:55.847Z,7.18
2023-04-15T03:49:23.211Z,6.60
2023-04-15T03:51:49.828Z,7.30
2023-04-15T03:54:16.528Z,6.80
2023-04-15T03:56:43.075Z,7.07
2023-04-15T03:59:09.875Z,7.20
2023-04-15T04:01:36.448Z,6.70
2023-04-15T04:04:03.101Z,6.90
2023-04-15T04:06:29.763Z,8.10
2023-04-15T04:08:56.633Z,7.05
2023-04-15T04:11:23.192Z,7.07
2023-04-15T04:13:49.691Z,7.22
2023-04-15T04:16:16.480Z,7.38
2023-04-15T04:18:43.062Z,7.55
2023-04-15T04:21:09.718Z,7.55
2023-04-15T04:23:36.455Z,7.38
2023-04-15T04:26:03.004Z,7.20
2023-04-15T04:28:29.668Z,7.00
2023-04-15T04:30:56.525Z,7.15
2023-04-15T04:33:23.116Z,7.18
2023-04-15T04:35:49.742Z,6.90
2023-04-15T04:38:16.231Z,6.88
2023-04-15T04:40:42.901Z,7.03
2023-04-15T04:43:09.917Z,6.75
2023-04-15T04:45:36.639Z,7.07
2023-04-15T04:48:07.092Z,6.50
2023-04-15T04:50:34.430Z,6.88
2023-04-15T04:53:01.699Z,7.38
2023-04-15T04:55:28.600Z,6.72
2023-04-15T04:57:55.583Z,6.47
2023-04-15T05:00:22.767Z,6.88
2023-04-15T05:02:49.554Z,6.70
2023-04-15T05:05:16.484Z,6.25
2023-04-15T05:07:43.134Z,7.43
2023-04-15T05:10:10.166Z,6.88
2023-04-15T05:12:38.322Z,7.97
2023-04-15T05:15:06.423Z,7.40
2023-04-15T05:17:35.082Z,7.38
2023-04-15T05:20:02.619Z,7.47
2023-04-15T05:22:29.369Z,6.35
2023-04-15T05:24:56.182Z,6.75
2023-04-15T05:27:23.994Z,6.72
2023-04-15T05:29:50.486Z,6.88
2023-04-15T05:32:17.354Z,6.55
2023-04-15T05:34:43.929Z,6.18
2023-04-15T05:37:10.452Z,7.15
2023-04-15T05:39:37.144Z,6.63
2023-04-15T05:42:03.757Z,6.50
2023-04-15T05:44:30.411Z,6.80
2023-04-15T05:46:57.044Z,6.32
2023-04-15T05:49:23.763Z,5.85
2023-04-15T05:51:50.668Z,6.45
2023-04-15T05:54:18.690Z,6.40
2023-04-15T05:56:46.608Z,6.38
2023-04-15T05:59:13.280Z,6.20
2023-04-15T06:01:40.146Z,6.60
2023-04-15T06:04:07.100Z,5.82
2023-04-15T06:06:34.516Z,5.72
2023-04-15T06:09:04.185Z,5.97
2023-04-15T06:11:30.955Z,6.15
2023-04-15T06:13:57.490Z,6.20
2023-04-15T06:16:24.218Z,5.80
2023-04-15T06:18:50.762Z,5.97
2023-04-15T06:21:17.351Z,6.20
2023-04-15T06:23:43.917Z,6.10
2023-04-15T06:26:10.865Z,5.68
2023-04-15T06:28:37.552Z,5.30
2023-04-15T06:31:04.127Z,6.05
2023-04-15T06:33:31.600Z,5.43
2023-04-15T06:35:58.101Z,5.68
2023-04-15T06:38:24.776Z,5.70
2023-04-15T06:40:51.460Z,5.82
2023-04-15T06:43:18.332Z,5.70
2023-04-15T06:45:44.886Z,5.47
2023-04-15T06:48:12.041Z,5.70
2023-04-15T06:50:38.640Z,5.20
2023-04-15T06:53:05.655Z,5.30
2023-04-15T06:55:32.342Z,5.68
2023-04-15T06:57:58.918Z,5.40
2023-04-15T07:00:25.488Z,5.10
2023-04-15T07:02:52.662Z,4.80
2023-04-15T07:05:20.007Z,5.20
2023-04-15T07:07:46.543Z,4.90
2023-04-15T07:10:14.827Z,5.50
2023-04-15T07:12:41.559Z,4.90
2023-04-15T07:15:08.406Z,4.95
2023-04-15T07:17:34.934Z,5.35
2023-04-15T07:20:01.559Z,5.50
2023-04-15T07:22:28.150Z,5.18
2023-04-15T07:24:55.233Z,5.00
2023-04-15T07:27:21.808Z,5.05
2023-04-15T07:29:48.686Z,4.95
2023-04-15T07:32:15.397Z,5.40
2023-04-15T07:34:42.111Z,5.53
2023-04-15T07:37:08.657Z,5.47
2023-04-15T07:39:35.262Z,6.28
2023-04-15T07:42:02.157Z,5.63
2023-04-15T07:44:28.880Z,5.68
2023-04-15T07:46:56.428Z,5.57
2023-04-15T07:49:23.184Z,5.93
2023-04-15T07:51:49.943Z,6.10
2023-04-15T07:54:16.707Z,5.88
2023-04-15T07:56:43.263Z,6.28
2023-04-15T07:59:10.356Z,6.32
2023-04-15T08:01:37.618Z,6.00
2023-04-15T08:04:04.329Z,5.82
2023-04-15T08:06:31.139Z,6.18
2023-04-15T08:08:57.840Z,6.45
2023-04-15T08:11:24.803Z,6.20
2023-04-15T08:13:52.379Z,6.38
2023-04-15T08:16:27.434Z,6.05
2023-04-15T08:18:56.389Z,6.38
2023-04-15T08:21:23.643Z,5.97
2023-04-15T08:23:51.952Z,6.43
2023-04-15T08:26:19.746Z,7.17
2023-04-15T08:28:46.868Z,6.07
2023-04-15T08:31:15.203Z,7.05
2023-04-15T08:33:42.036Z,6.87
2023-04-15T08:36:09.209Z,5.70
2023-04-15T08:38:36.295Z,5.40
2023-04-15T08:41:07.278Z,4.97
2023-04-15T08:43:35.782Z,5.10
2023-04-15T08:46:04.175Z,4.90
2023-04-15T08:48:33.374Z,4.83
2023-04-15T08:51:00.686Z,4.82
2023-04-15T08:53:29.510Z,5.03
2023-04-15T08:55:57.778Z,4.68
2023-04-15T08:58:25.111Z,4.25
2023-04-15T09:00:51.676Z,3.92
2023-04-15T09:03:19.136Z,4.10
2023-04-15T09:05:46.888Z,3.78
2023-04-15T09:08:13.611Z,3.83
2023-04-15T09:10:40.305Z,3.67
2023-04-15T09:13:06.876Z,3.78
2023-04-15T09:15:33.642Z,3.13
2023-04-15T09:18:00.348Z,3.42
2023-04-15T09:20:27.207Z,3.72
2023-04-15T09:22:53.979Z,3.40
2023-04-15T09:25:23.275Z,3.40
2023-04-15T09:28:02.994Z,3.67
2023-04-15T09:30:29.832Z,3.20
2023-04-15T09:33:08.757Z,2.85
2023-04-15T09:35:36.640Z,3.25
2023-04-15T09:38:07.684Z,3.50
2023-04-15T09:40:41.898Z,4.03
2023-04-15T09:43:12.721Z,3.30
2023-04-15T09:45:46.889Z,3.15
2023-04-15T09:48:18.226Z,2.67
2023-04-15T09:50:44.922Z,3.10
2023-04-15T09:53:15.566Z,2.53
2023-04-15T09:55:51.901Z,3.28
2023-04-15T09:58:30.974Z,2.97
2023-04-15T10:00:59.805Z,2.65
2023-04-15T10:03:31.515Z,3.30
2023-04-15T10:06:00.286Z,3.10
2023-04-15T10:08:32.763Z,2.85
2023-04-15T10:11:00.648Z,2.85
2023-04-15T10:13:29.602Z,29.00
2023-04-15T10:15:57.730Z,5.00
2023-04-15T10:18:32.264Z,2.83
2023-04-15T10:21:01.134Z,2.58
2023-04-15T10:23:28.000Z,2.95
2023-04-15T10:25:56.075Z,2.70
2023-04-15T10:28:22.870Z,2.67
2023-04-15T10:30:49.968Z,2.67
2023-04-15T10:33:22.562Z,2.72
2023-04-15T10:35:51.537Z,2.58
2023-04-15T10:38:32.730Z,2.55
2023-04-15T10:41:21.205Z,2.95
2023-04-15T10:44:04.981Z,3.00
2023-04-15T10:46:41.074Z,2.53
2023-04-15T10:49:16.271Z,2.92
2023-04-15T10:51:44.757Z,2.63
2023-04-15T10:54:16.519Z,2.20
2023-04-15T10:56:50.722Z,2.35
2023-04-15T10:59:17.592Z,3.08
2023-04-15T11:01:51.862Z,2.50
2023-04-15T11:05:00.081Z,2.85
2023-04-15T11:07:38.436Z,2.40
2023-04-15T11:10:13.975Z,2.87
2023-04-15T11:12:41.158Z,2.30
2023-04-15T11:15:30.406Z,2.63
2023-04-15T11:20:25.027Z,2.97
2023-04-15T11:23:14.800Z,2.70
2023-04-15T11:25:40.336Z,2.47
2023-04-15T11:28:07.500Z,2.95
2023-04-15T11:30:36.834Z,4.70
2023-04-15T11:35:31.960Z,2.50
2023-04-15T11:37:58.539Z,2.55
2023-04-15T11:40:29.519Z,2.50
2023-04-15T11:43:10.198Z,2.60
2023-04-15T11:45:38.578Z,2.25
2023-04-15T11:48:07.320Z,2.40
2023-04-15T11:50:34.222Z,2.40
2023-04-15T11:53:08.362Z,11.20
2023-04-15T11:55:46.819Z,3.17
2023-04-15T11:58:22.359Z,2.60
2023-04-15T12:00:57.917Z,2.60
2023-04-15T12:03:36.184Z,2.90
2023-04-15T12:06:14.825Z,2.88
2023-04-15T12:08:51.256Z,3.03
2023-04-15T12:11:18.359Z,3.08
2023-04-15T12:13:49.668Z,3.50
2023-04-15T12:16:20.015Z,2.72
2023-04-15T12:18:47.496Z,2.80
2023-04-15T12:21:14.368Z,3.15
2023-04-15T12:23:49.782Z,3.20
2023-04-15T12:26:17.804Z,3.00
2023-04-15T12:28:44.483Z,3.05
2023-04-15T12:31:13.418Z,2.85
2023-04-15T12:33:40.502Z,3.63
2023-04-15T12:36:06.996Z,3.35
2023-04-15T12:38:33.526Z,3.67
2023-04-15T12:41:00.213Z,3.50
2023-04-15T12:43:27.198Z,3.85
2023-04-15T12:45:53.926Z,3.42
2023-04-15T12:48:20.472Z,3.88
2023-04-15T12:50:46.953Z,3.13
2023-04-15T12:53:13.687Z,2.42
2023-04-15T12:55:40.205Z,1.85
2023-04-15T12:58:06.889Z,1.60
2023-04-15T13:00:36.550Z,1.48
2023-04-15T13:03:04.824Z,1.75
2023-04-15T13:05:33.410Z,2.63
2023-04-15T13:07:59.924Z,2.55
2023-04-15T13:10:26.473Z,1.23
2023-04-15T13:12:53.713Z,1.40
2023-04-15T13:15:23.185Z,4.78
2023-04-15T13:17:49.991Z,3.05
2023-04-15T13:20:17.242Z,1.40
2023-04-15T13:22:43.795Z,1.30
2023-04-15T13:25:10.405Z,1.20
2023-04-15T13:27:37.436Z,1.50
2023-04-15T13:30:05.155Z,1.10
2023-04-15T13:32:31.898Z,1.20
2023-04-15T13:34:59.249Z,0.98
2023-04-15T13:37:30.397Z,1.10
2023-04-15T13:39:57.528Z,0.90
2023-04-15T13:42:24.688Z,1.20
2023-04-15T13:44:51.593Z,1.02
2023-04-15T13:47:19.947Z,1.20
2023-04-15T13:49:46.528Z,1.00
2023-04-15T13:52:13.246Z,1.00
2023-04-15T13:54:40.078Z,1.30
2023-04-15T13:57:06.943Z,2.70
2023-04-15T13:59:34.771Z,1.67
2023-04-15T14:02:01.680Z,1.80
2023-04-15T14:04:28.498Z,1.70
2023-04-15T14:06:56.065Z,1.20
2023-04-15T14:09:26.160Z,1.20
2023-04-15T14:11:53.182Z,1.25
2023-04-15T14:14:19.832Z,1.60
2023-04-15T14:16:46.472Z,1.45
2023-04-15T14:19:13.206Z,1.42
2023-04-15T14:21:39.699Z,1.83
2023-04-15T14:24:06.486Z,1.33
2023-04-15T14:26:33.057Z,1.30
2023-04-15T14:28:59.801Z,1.73
2023-04-15T14:31:26.419Z,1.40
2023-04-15T14:33:52.988Z,1.38
2023-04-15T14:36:19.579Z,1.00
2023-04-15T14:38:48.426Z,1.10
2023-04-15T14:41:15.985Z,1.20
2023-04-15T14:43:42.519Z,1.10
2023-04-15T14:46:10.549Z,1.40
2023-04-15T14:48:37.377Z,1.40
2023-04-15T14:51:03.983Z,1.58
2023-04-15T14:53:30.558Z,1.30
2023-04-15T14:55:57.108Z,1.30
2023-04-15T14:58:23.768Z,1.30
2023-04-15T15:00:50.670Z,1.00
2023-04-15T15:03:17.432Z,1.15
2023-04-15T15:05:46.121Z,1.20
2023-04-15T15:08:13.458Z,2.35
2023-04-15T15:10:48.971Z,1.30
2023-04-15T15:13:16.546Z,1.25
2023-04-15T15:15:43.252Z,1.58
2023-04-15T15:18:10.649Z,1.30
2023-04-15T15:20:37.297Z,1.00
2023-04-15T15:23:03.888Z,1.15
2023-04-15T15:25:31.604Z,1.23
2023-04-15T15:27:58.232Z,1.13
2023-04-15T15:30:24.733Z,1.05
2023-04-15T15:32:51.709Z,1.23
2023-04-15T15:35:18.296Z,1.48
2023-04-15T15:37:45.988Z,1.08
2023-04-15T15:40:12.807Z,1.15
2023-04-15T15:42:39.328Z,2.95
2023-04-15T15:45:06.480Z,2.53
2023-04-15T15:47:33.167Z,1.52
2023-04-15T15:50:01.965Z,0.85
2023-04-15T15:52:29.301Z,1.10
2023-04-15T15:54:55.935Z,0.90
2023-04-15T15:57:22.719Z,1.10
2023-04-15T15:59:50.070Z,1.05
2023-04-15T16:02:17.982Z,1.38
2023-04-15T16:04:44.594Z,1.70
2023-04-15T16:07:11.900Z,2.15
2023-04-15T16:09:40.867Z,2.38
2023-04-15T16:12:07.360Z,2.40
2023-04-15T16:14:33.865Z,2.65
2023-04-15T16:17:00.594Z,5.07
2023-04-15T16:19:27.111Z,2.67
2023-04-15T16:21:54.248Z,1.80
2023-04-15T16:24:20.750Z,1.35
2023-04-15T16:26:47.367Z,1.98
2023-04-15T16:29:13.936Z,2.17
2023-04-15T16:31:41.316Z,2.45
2023-04-15T16:34:08.016Z,1.88
2023-04-15T16:36:35.560Z,2.20
2023-04-15T16:39:02.132Z,2.10
2023-04-15T16:41:29.479Z,1.90
2023-04-15T16:43:58.417Z,1.85
2023-04-15T16:46:24.996Z,1.92
2023-04-15T16:48:51.598Z,1.92
2023-04-15T16:51:18.160Z,1.95
2023-04-15T16:53:44.685Z,1.92
2023-04-15T16:56:11.300Z,1.88
2023-04-15T16:58:37.842Z,1.63
2023-04-15T17:01:04.441Z,1.77
2023-04-15T17:03:31.295Z,1.42
2023-04-15T17:05:57.900Z,1.60
2023-04-15T17:08:24.448Z,1.50
2023-04-15T17:10:51.710Z,1.50
2023-04-15T17:13:18.390Z,1.63
2023-04-15T17:15:44.945Z,1.25
2023-04-15T17:18:12.045Z,1.33
2023-04-15T17:20:39.363Z,1.55
2023-04-15T17:23:05.893Z,1.30
2023-04-15T17:25:32.424Z,1.40
2023-04-15T17:27:58.945Z,1.55
2023-04-15T17:30:25.475Z,1.60
2023-04-15T17:32:52.197Z,1.38
2023-04-15T17:35:18.797Z,1.75
2023-04-15T17:37:46.205Z,20.80
2023-04-15T17:40:13.672Z,2.22
2023-04-15T17:42:40.536Z,1.40
2023-04-15T17:45:07.680Z,1.63
2023-04-15T17:47:34.454Z,1.50
2023-04-15T17:50:01.017Z,1.52
2023-04-15T17:52:27.614Z,1.27
2023-04-15T17:54:54.108Z,2.15
2023-04-15T17:57:20.631Z,1.20
2023-04-15T17:59:48.087Z,1.23
2023-04-15T18:02:15.337Z,1.20
2023-04-15T18:04:42.092Z,1.40
2023-04-15T18:07:08.959Z,1.10
2023-04-15T18:09:36.496Z,1.40
2023-04-15T18:12:04.540Z,1.15
2023-04-15T18:14:34.811Z,1.30
2023-04-15T18:17:02.944Z,1.20
2023-04-15T18:19:30.509Z,1.42
2023-04-15T18:21:57.846Z,1.58
2023-04-15T18:24:24.405Z,1.60
2023-04-15T18:26:51.991Z,1.45
2023-04-15T18:29:18.596Z,1.40
2023-04-15T18:31:45.189Z,1.52
2023-04-15T18:34:11.728Z,1.23
2023-04-15T18:36:38.292Z,1.60
2023-04-15T18:39:05.469Z,1.50
2023-04-15T18:41:32.231Z,1.50
2023-04-15T18:43:58.837Z,1.50
2023-04-15T18:46:25.483Z,1.60
2023-04-15T18:48:52.054Z,1.90
2023-04-15T18:51:18.630Z,1.85
2023-04-15T18:53:45.493Z,1.98
2023-04-15T18:56:12.054Z,2.00
2023-04-15T18:59:28.173Z,2.00
2023-04-15T19:01:25.376Z,2.35
2023-04-15T19:03:51.943Z,2.00
2023-04-15T19:06:18.553Z,4.00
2023-04-15T19:08:45.473Z,4.30
2023-04-15T19:11:12.030Z,2.83
2023-04-15T19:13:38.604Z,2.25
2023-04-15T19:16:05.520Z,2.25
2023-04-15T19:18:32.160Z,1.73
2023-04-15T19:20:58.749Z,1.90
2023-04-15T19:23:25.364Z,2.10
2023-04-15T19:25:51.925Z,2.38
2023-04-15T19:28:18.482Z,2.03
2023-04-15T19:30:45.081Z,2.50
2023-04-15T19:33:12.359Z,1.90
2023-04-15T19:35:40.890Z,2.05
2023-04-15T19:38:07.483Z,2.45
2023-04-15T19:40:34.031Z,2.35
2023-04-15T19:43:00.683Z,1.83
2023-04-15T19:45:27.300Z,1.90
2023-04-15T19:47:54.103Z,2.00
2023-04-15T19:50:24.551Z,1.90
2023-04-15T19:52:51.077Z,2.00
2023-04-15T19:55:17.660Z,1.70
2023-04-15T19:57:44.193Z,2.88
2023-04-15T20:00:11.205Z,2.45
2023-04-15T20:02:38.052Z,2.28
2023-04-15T20:05:09.425Z,2.10
2023-04-15T20:07:35.931Z,1.90
2023-04-15T20:10:02.829Z,2.00
2023-04-15T20:12:51.301Z,2.20
2023-04-15T20:15:19.960Z,2.08
2023-04-15T20:17:46.537Z,1.92
2023-04-15T20:20:13.169Z,1.80
2023-04-15T20:22:39.776Z,1.88
2023-04-15T20:25:07.034Z,1.65
2023-04-15T20:27:33.867Z,2.00
2023-04-15T20:30:00.509Z,2.05
2023-04-15T20:32:28.318Z,2.15
2023-04-15T20:34:55.145Z,2.35
2023-04-15T20:37:22.230Z,1.90
2023-04-15T20:39:49.013Z,2.20
2023-04-15T20:42:15.726Z,2.10
2023-04-15T20:44:42.569Z,2.00
2023-04-15T20:47:09.204Z,2.10
2023-04-15T20:49:37.416Z,2.28
2023-04-15T20:52:07.853Z,2.08
2023-04-15T20:54:34.466Z,2.42
2023-04-15T20:57:01.725Z,2.20
2023-04-15T20:59:28.496Z,2.20
2023-04-15T21:01:57.015Z,2.13
2023-04-15T21:04:24.398Z,2.03
2023-04-15T21:06:51.987Z,2.20
2023-04-15T21:09:18.770Z,2.22
2023-04-15T21:14:18.793Z,2.70
2023-04-15T21:16:45.542Z,2.15
2023-04-15T21:19:12.216Z,2.28
2023-04-15T21:21:38.771Z,2.30
2023-04-15T21:24:07.489Z,2.08
2023-04-15T21:26:34.265Z,2.58
2023-04-15T21:29:00.780Z,2.05
2023-04-15T21:31:27.273Z,2.22
2023-04-15T21:33:53.889Z,2.20
2023-04-15T21:36:20.444Z,2.30
2023-04-15T21:38:47.028Z,2.25
2023-04-15T21:41:13.749Z,2.17
2023-04-15T21:43:40.342Z,2.13
2023-04-15T21:46:24.288Z,2.22
2023-04-15T21:48:55.605Z,2.20
2023-04-15T21:51:22.431Z,1.98
2023-04-15T21:53:48.965Z,2.40
2023-04-15T21:56:15.820Z,2.65
2023-04-15T21:58:42.841Z,2.30
2023-04-15T22:01:09.486Z,2.40
2023-04-15T22:03:36.317Z,2.75
2023-04-15T22:06:03.811Z,2.20
2023-04-15T22:08:36.108Z,2.70
2023-04-15T22:11:08.448Z,2.50
2023-04-15T22:13:35.208Z,2.08
2023-04-15T22:16:02.201Z,2.47
2023-04-15T22:18:28.690Z,2.50
2023-04-15T22:20:56.164Z,2.20
2023-04-15T22:23:22.754Z,2.75
2023-04-15T22:25:49.336Z,2.97
2023-04-15T22:28:15.913Z,2.75
2023-04-15T22:30:43.004Z,2.88
2023-04-15T22:33:10.220Z,3.10
2023-04-15T22:35:37.423Z,3.70
2023-04-15T22:38:05.102Z,3.65
2023-04-15T22:40:31.722Z,4.13
2023-04-15T22:42:58.489Z,4.40
2023-04-15T22:45:25.406Z,4.15
2023-04-15T22:47:52.033Z,3.85
2023-04-15T22:50:18.746Z,4.05
2023-04-15T22:52:46.576Z,4.30
2023-04-15T22:55:13.404Z,4.63
2023-04-15T22:57:40.488Z,4.45
2023-04-15T23:00:07.744Z,4.88
2023-04-15T23:02:34.656Z,5.20
2023-04-15T23:05:02.610Z,4.63
2023-04-15T23:07:31.572Z,5.22
2023-04-15T23:10:00.170Z,5.00
2023-04-15T23:12:27.116Z,5.70
2023-04-15T23:14:53.596Z,5.60
2023-04-15T23:17:20.339Z,5.70
2023-04-15T23:19:46.891Z,5.65
2023-04-15T23:22:13.678Z,5.85
2023-04-15T23:24:40.335Z,6.15
2023-04-15T23:27:06.838Z,5.65
2023-04-15T23:29:33.340Z,5.70
2023-04-15T23:31:59.966Z,5.93
2023-04-15T23:34:27.034Z,6.30
2023-04-15T23:36:53.650Z,6.20
2023-04-15T23:39:20.632Z,6.20
2023-04-15T23:41:47.543Z,6.68
2023-04-15T23:44:14.230Z,6.82
2023-04-15T23:46:40.856Z,6.70
2023-04-15T23:49:07.543Z,6.05
2023-04-15T23:51:34.237Z,6.32
2023-04-15T23:54:00.935Z,6.18
2023-04-15T23:56:27.461Z,6.28
2023-04-15T23:58:54.040Z,6.75
